createdAt,value
2018-06-27T04:02:38.921Z,6.30
2018-06-27T04:05:11.815Z,7.20
2018-06-27T04:07:43.372Z,4.83
2018-06-27T04:10:14.714Z,5.30
2018-06-27T04:12:45.126Z,5.53
2018-06-27T04:15:12.158Z,6.93
2018-06-27T04:17:39.202Z,5.93
2018-06-27T04:20:06.324Z,6.80
2018-06-27T04:22:34.140Z,4.57
2018-06-27T04:25:01.387Z,8.17
2018-06-27T04:27:29.350Z,5.50
2018-06-27T04:29:56.438Z,8.20
2018-06-27T04:32:23.958Z,7.83
2018-06-27T04:34:51.036Z,10.70
2018-06-27T04:37:18.135Z,9.40
2018-06-27T04:39:45.186Z,7.60
2018-06-27T04:42:12.226Z,5.53
2018-06-27T04:44:39.266Z,7.33
2018-06-27T04:47:06.292Z,12.23
2018-06-27T04:49:33.407Z,14.93
2018-06-27T04:52:01.259Z,7.20
2018-06-27T04:54:28.367Z,6.50
2018-06-27T04:56:55.463Z,5.20
2018-06-27T04:59:22.535Z,7.87
2018-06-27T05:01:49.693Z,13.70
2018-06-27T05:04:16.673Z,9.13
2018-06-27T05:06:43.730Z,5.90
2018-06-27T05:09:10.886Z,7.33
2018-06-27T05:11:38.319Z,6.93
2018-06-27T05:14:05.463Z,6.40
2018-06-27T05:16:32.571Z,10.67
2018-06-27T05:18:59.691Z,7.60
2018-06-27T05:21:26.755Z,6.47
2018-06-27T05:23:53.817Z,6.90
2018-06-27T05:26:20.896Z,7.43
2018-06-27T05:28:47.989Z,7.17
2018-06-27T05:31:15.070Z,6.97
2018-06-27T05:33:42.553Z,6.80
2018-06-27T05:36:09.664Z,6.70
2018-06-27T05:38:36.769Z,7.03
2018-06-27T05:41:03.886Z,7.80
2018-06-27T05:46:14.091Z,7.10
2018-06-27T05:48:41.201Z,7.80
2018-06-27T05:51:08.329Z,6.40
2018-06-27T05:53:35.564Z,7.50
2018-06-27T05:56:02.649Z,9.10
2018-06-27T05:58:29.734Z,6.20
2018-06-27T06:00:56.753Z,6.60
2018-06-27T06:06:04.885Z,7.20
2018-06-27T06:08:31.955Z,5.97
2018-06-27T06:10:59.013Z,8.20
2018-06-27T06:13:26.062Z,7.43
2018-06-27T06:15:53.109Z,10.83
2018-06-27T06:18:20.212Z,6.63
2018-06-27T06:20:49.130Z,6.67
2018-06-27T06:23:16.201Z,6.67
2018-06-27T06:25:43.282Z,5.40
2018-06-27T06:28:10.972Z,5.53
2018-06-27T06:30:38.035Z,6.50
2018-06-27T06:33:05.285Z,7.43
2018-06-27T06:35:32.390Z,6.73
2018-06-27T06:37:59.467Z,8.90
2018-06-27T06:40:26.526Z,6.30
2018-06-27T06:42:53.605Z,5.43
2018-06-27T06:45:20.670Z,5.63
2018-06-27T06:47:47.740Z,4.60
2018-06-27T06:50:14.794Z,5.00
2018-06-27T06:52:41.854Z,4.57
2018-06-27T06:55:08.939Z,4.13
2018-06-27T06:57:36.030Z,4.30
2018-06-27T07:00:03.101Z,4.60
2018-06-27T07:02:30.185Z,3.97
2018-06-27T07:04:57.266Z,4.77
2018-06-27T07:07:24.322Z,5.30
2018-06-27T07:09:51.398Z,6.90
2018-06-27T07:12:18.481Z,7.40
2018-06-27T07:14:45.565Z,4.27
2018-06-27T07:17:12.641Z,3.47
2018-06-27T07:19:39.710Z,4.77
2018-06-27T07:22:06.833Z,2.97
2018-06-27T07:24:33.931Z,3.37
2018-06-27T07:27:01.026Z,3.47
2018-06-27T07:29:28.198Z,2.83
2018-06-27T07:31:55.270Z,3.10
2018-06-27T07:34:22.379Z,2.53
2018-06-27T07:36:49.462Z,2.90
2018-06-27T07:39:16.566Z,3.17
2018-06-27T07:41:43.613Z,3.60
2018-06-27T07:44:10.674Z,2.63
2018-06-27T07:46:37.717Z,3.30
2018-06-27T07:49:04.839Z,3.10
2018-06-27T07:51:31.926Z,3.30
2018-06-27T07:53:58.983Z,2.47
2018-06-27T07:56:26.251Z,3.17
2018-06-27T07:58:53.312Z,3.53
2018-06-27T08:01:20.389Z,2.50
2018-06-27T08:03:47.418Z,2.07
2018-06-27T08:06:14.494Z,2.63
2018-06-27T08:08:41.519Z,2.23
2018-06-27T08:11:08.838Z,2.40
2018-06-27T08:13:35.912Z,2.47
2018-06-27T08:16:03.167Z,2.83
2018-06-27T08:18:37.037Z,2.30
2018-06-27T08:21:04.087Z,2.37
2018-06-27T08:23:31.120Z,2.60
2018-06-27T08:25:58.206Z,3.10
2018-06-27T08:28:25.241Z,2.63
2018-06-27T08:30:52.303Z,2.50
2018-06-27T08:33:19.350Z,2.83
2018-06-27T08:35:46.438Z,2.73
2018-06-27T08:38:13.620Z,3.27
2018-06-27T08:40:40.650Z,4.20
2018-06-27T08:43:07.702Z,2.67
2018-06-27T08:45:34.796Z,2.77
2018-06-27T08:48:01.922Z,2.73
2018-06-27T08:50:28.959Z,2.50
2018-06-27T08:52:56.009Z,2.60
2018-06-27T08:55:23.047Z,2.73
2018-06-27T08:57:50.130Z,2.20
2018-06-27T09:00:17.174Z,2.27
2018-06-27T09:02:44.227Z,2.20
2018-06-27T09:05:11.274Z,2.00
2018-06-27T09:07:38.384Z,2.40
2018-06-27T09:10:05.366Z,2.20
2018-06-27T09:12:32.410Z,2.43
2018-06-27T09:14:59.430Z,3.37
2018-06-27T09:17:26.511Z,2.20
2018-06-27T09:19:53.532Z,2.03
2018-06-27T09:22:20.624Z,1.80
2018-06-27T09:24:47.685Z,1.67
2018-06-27T09:27:14.727Z,2.00
2018-06-27T09:29:41.800Z,1.77
2018-06-27T09:32:08.850Z,1.80
2018-06-27T09:34:35.938Z,2.90
2018-06-27T09:37:02.985Z,1.60
2018-06-27T09:39:30.038Z,1.83
2018-06-27T09:41:57.101Z,4.03
2018-06-27T09:44:24.129Z,2.10
2018-06-27T09:46:51.174Z,2.00
2018-06-27T09:49:18.218Z,1.70
2018-06-27T09:51:45.410Z,2.30
2018-06-27T09:54:12.514Z,3.67
2018-06-27T09:56:39.614Z,1.90
2018-06-27T09:59:06.616Z,1.90
2018-06-27T10:01:33.668Z,2.00
2018-06-27T10:04:00.705Z,2.30
2018-06-27T10:06:27.766Z,2.07
2018-06-27T10:08:54.802Z,2.20
2018-06-27T10:11:22.067Z,2.13
2018-06-27T10:13:49.099Z,2.00
2018-06-27T10:16:16.146Z,2.23
2018-06-27T10:18:43.195Z,2.10
2018-06-27T10:21:10.257Z,2.67
2018-06-27T10:23:37.307Z,2.30
2018-06-27T10:26:04.646Z,2.17
2018-06-27T10:28:33.848Z,2.00
2018-06-27T10:31:00.840Z,2.40
2018-06-27T10:33:27.870Z,1.90
2018-06-27T10:35:54.881Z,2.10
2018-06-27T10:38:21.906Z,2.40
2018-06-27T10:40:48.938Z,2.00
2018-06-27T10:43:15.974Z,4.20
2018-06-27T10:45:43.103Z,2.07
2018-06-27T10:48:10.117Z,1.83
2018-06-27T10:50:37.167Z,1.90
2018-06-27T10:53:04.214Z,1.97
2018-06-27T10:55:31.284Z,1.90
2018-06-27T10:57:58.337Z,1.53
2018-06-27T11:00:25.376Z,2.00
2018-06-27T11:02:52.401Z,2.47
2018-06-27T11:05:19.465Z,2.13
2018-06-27T11:07:46.742Z,4.40
2018-06-27T11:10:13.811Z,4.10
2018-06-27T11:12:40.914Z,3.90
2018-06-27T11:15:08.293Z,2.83
2018-06-27T11:17:35.379Z,1.70
2018-06-27T11:20:02.466Z,2.20
2018-06-27T11:22:29.537Z,2.00
2018-06-27T11:24:56.578Z,1.80
2018-06-27T11:27:23.659Z,1.60
2018-06-27T11:29:50.698Z,1.53
2018-06-27T11:32:17.798Z,1.67
2018-06-27T11:34:44.840Z,3.33
2018-06-27T11:37:11.894Z,1.83
2018-06-27T11:39:38.927Z,1.50
2018-06-27T11:42:05.998Z,1.70
2018-06-27T11:44:33.071Z,2.53
2018-06-27T11:47:00.067Z,1.70
2018-06-27T11:49:27.118Z,1.93
2018-06-27T11:51:54.159Z,3.40
2018-06-27T11:54:21.207Z,1.70
2018-06-27T11:56:48.279Z,1.90
2018-06-27T11:59:15.309Z,1.73
2018-06-27T12:01:42.350Z,2.13
2018-06-27T12:04:09.413Z,1.83
2018-06-27T12:06:36.442Z,1.73
2018-06-27T12:09:05.339Z,1.83
2018-06-27T12:11:32.377Z,1.80
2018-06-27T12:13:59.410Z,2.90
2018-06-27T12:16:26.726Z,2.23
2018-06-27T12:18:53.811Z,1.70
2018-06-27T12:21:20.837Z,2.37
2018-06-27T12:23:47.874Z,1.80
2018-06-27T12:26:14.903Z,2.13
2018-06-27T12:28:41.930Z,1.90
2018-06-27T12:31:09.003Z,1.60
2018-06-27T12:33:36.043Z,1.50
2018-06-27T12:36:03.166Z,1.70
2018-06-27T12:38:30.212Z,1.83
2018-06-27T12:40:57.259Z,2.30
2018-06-27T12:43:24.282Z,1.80
2018-06-27T12:45:51.324Z,2.90
2018-06-27T12:48:18.358Z,1.83
2018-06-27T12:50:45.394Z,2.10
2018-06-27T12:53:12.421Z,2.33
2018-06-27T12:55:39.458Z,2.03
2018-06-27T12:58:06.483Z,1.70
2018-06-27T13:00:33.546Z,1.50
2018-06-27T13:03:00.575Z,1.57
2018-06-27T13:05:27.657Z,1.53
2018-06-27T13:07:54.709Z,2.23
2018-06-27T13:10:21.754Z,1.70
2018-06-27T13:12:48.778Z,1.97
2018-06-27T13:15:15.818Z,3.50
2018-06-27T13:17:42.867Z,3.57
2018-06-27T13:20:09.909Z,2.60
2018-06-27T13:22:36.998Z,1.90
2018-06-27T13:25:04.428Z,3.03
2018-06-27T13:27:31.466Z,2.63
2018-06-27T13:29:58.507Z,2.13
2018-06-27T13:32:25.566Z,2.53
2018-06-27T13:34:52.638Z,2.43
2018-06-27T13:37:19.663Z,2.50
2018-06-27T13:39:46.729Z,2.10
2018-06-27T13:42:13.802Z,2.00
2018-06-27T13:44:40.853Z,2.37
2018-06-27T13:47:07.906Z,2.00
2018-06-27T13:49:36.385Z,2.20
2018-06-27T13:52:03.439Z,2.53
2018-06-27T13:54:30.485Z,2.50
2018-06-27T13:56:57.671Z,6.67
2018-06-27T13:59:24.787Z,6.03
2018-06-27T14:01:51.798Z,2.37
2018-06-27T14:04:18.827Z,2.00
2018-06-27T14:06:45.884Z,2.57
2018-06-27T14:09:12.961Z,2.10
2018-06-27T14:11:40.063Z,2.27
2018-06-27T14:14:07.163Z,2.40
2018-06-27T14:16:34.681Z,4.20
2018-06-27T14:19:01.843Z,2.70
2018-06-27T14:21:28.900Z,2.57
2018-06-27T14:23:55.942Z,3.87
2018-06-27T14:26:22.979Z,2.30
2018-06-27T14:28:50.037Z,2.20
2018-06-27T14:31:17.125Z,2.30
2018-06-27T14:33:44.230Z,2.03
2018-06-27T14:36:11.271Z,1.90
2018-06-27T14:38:38.349Z,2.30
2018-06-27T14:41:06.320Z,1.70
2018-06-27T14:43:33.443Z,3.97
2018-06-27T14:46:02.153Z,1.87
2018-06-27T14:48:29.252Z,1.93
2018-06-27T14:50:58.637Z,1.93
2018-06-27T14:53:25.728Z,1.87
2018-06-27T14:55:55.980Z,2.70
2018-06-27T14:58:23.097Z,2.40
2018-06-27T15:00:50.393Z,1.90
2018-06-27T15:03:17.489Z,2.20
2018-06-27T15:05:44.559Z,2.00
2018-06-27T15:08:11.692Z,2.30
2018-06-27T15:10:39.079Z,3.13
2018-06-27T15:13:06.208Z,1.77
2018-06-27T15:15:33.244Z,2.50
2018-06-27T15:18:00.362Z,1.53
2018-06-27T15:20:27.446Z,1.60
2018-06-27T15:22:54.460Z,1.70
2018-06-27T15:25:21.514Z,1.73
2018-06-27T15:27:48.537Z,8.00
2018-06-27T15:30:15.549Z,1.90
2018-06-27T15:32:42.799Z,2.23
2018-06-27T15:35:09.853Z,1.57
2018-06-27T15:37:36.994Z,1.70
2018-06-27T15:40:04.015Z,1.97
2018-06-27T15:42:31.040Z,2.23
2018-06-27T15:44:58.174Z,1.90
2018-06-27T15:47:25.357Z,2.17
2018-06-27T15:49:52.404Z,1.73
2018-06-27T15:52:19.433Z,3.07
2018-06-27T15:54:46.478Z,1.83
2018-06-27T15:57:13.545Z,2.50
2018-06-27T15:59:47.145Z,3.10
2018-06-27T16:02:14.195Z,2.43
2018-06-27T16:04:41.232Z,1.97
2018-06-27T16:07:08.287Z,2.30
2018-06-27T16:09:35.334Z,2.17
2018-06-27T16:12:02.485Z,2.20
2018-06-27T16:14:29.530Z,2.37
2018-06-27T16:16:56.632Z,2.17
2018-06-27T16:19:23.607Z,2.00
2018-06-27T16:21:50.807Z,2.63
2018-06-27T16:24:17.838Z,2.40
2018-06-27T16:26:44.845Z,2.30
2018-06-27T16:29:11.855Z,2.03
2018-06-27T16:31:38.878Z,2.50
2018-06-27T16:34:05.930Z,2.70
2018-06-27T16:36:33.009Z,3.13
2018-06-27T16:39:00.061Z,2.70
2018-06-27T16:41:27.118Z,2.80
2018-06-27T16:43:54.162Z,2.50
2018-06-27T16:46:21.220Z,3.30
2018-06-27T16:48:48.250Z,2.53
2018-06-27T16:51:15.419Z,2.50
2018-06-27T16:53:42.541Z,2.40
2018-06-27T16:56:09.502Z,3.33
2018-06-27T16:58:36.591Z,3.63
2018-06-27T17:01:03.625Z,2.90
2018-06-27T17:03:30.633Z,2.40
2018-06-27T17:05:57.641Z,4.60
2018-06-27T17:08:24.674Z,2.30
2018-06-27T17:10:51.683Z,2.63
2018-06-27T17:13:18.706Z,3.20
2018-06-27T17:15:45.706Z,4.40
2018-06-27T17:18:12.934Z,2.60
2018-06-27T17:20:39.931Z,2.63
2018-06-27T17:23:07.027Z,3.00
2018-06-27T17:25:34.093Z,2.57
2018-06-27T17:28:01.104Z,2.40
2018-06-27T17:30:28.111Z,2.67
2018-06-27T17:32:55.119Z,2.40
2018-06-27T17:35:22.166Z,3.07
2018-06-27T17:37:49.174Z,3.30
2018-06-27T17:40:16.198Z,2.37
2018-06-27T17:42:43.206Z,2.73
2018-06-27T17:45:10.215Z,2.47
2018-06-27T17:47:37.218Z,2.60
2018-06-27T17:50:05.502Z,2.80
2018-06-27T17:52:32.505Z,2.60
2018-06-27T17:54:59.534Z,2.80
2018-06-27T17:57:26.530Z,2.50
2018-06-27T17:59:53.546Z,2.90
2018-06-27T18:02:21.241Z,3.50
2018-06-27T18:04:48.240Z,2.77
2018-06-27T18:07:15.291Z,2.83
2018-06-27T18:09:42.294Z,2.90
2018-06-27T18:12:09.314Z,3.30
2018-06-27T18:14:36.418Z,3.00
2018-06-27T18:17:03.515Z,3.33
2018-06-27T18:19:30.527Z,3.40
2018-06-27T18:21:57.525Z,3.00
2018-06-27T18:24:24.517Z,3.83
2018-06-27T18:26:51.510Z,3.90
2018-06-27T18:29:18.502Z,3.40
2018-06-27T18:31:45.502Z,3.77
2018-06-27T18:34:12.497Z,3.73
2018-06-27T18:36:39.530Z,4.70
2018-06-27T18:39:07.713Z,3.57
2018-06-27T18:41:34.711Z,3.13
2018-06-27T18:44:01.735Z,3.93
2018-06-27T18:46:28.788Z,2.90
2018-06-27T18:48:55.794Z,3.37
2018-06-27T18:51:22.806Z,3.37
2018-06-27T18:53:49.898Z,3.70
2018-06-27T18:56:17.078Z,3.60
2018-06-27T18:58:44.279Z,5.13
2018-06-27T19:01:11.222Z,3.10
2018-06-27T19:03:38.241Z,3.20
2018-06-27T19:06:05.256Z,3.63
2018-06-27T19:08:32.275Z,3.40
2018-06-27T19:10:59.318Z,3.40
2018-06-27T19:13:26.331Z,3.37
2018-06-27T19:15:53.333Z,3.20
2018-06-27T19:18:20.750Z,3.50
2018-06-27T19:20:47.748Z,3.80
2018-06-27T19:23:14.765Z,3.33
2018-06-27T19:25:41.931Z,3.50
2018-06-27T19:28:09.046Z,3.33
2018-06-27T19:30:36.066Z,3.00
2018-06-27T19:33:03.136Z,3.17
2018-06-27T19:35:30.153Z,2.87
2018-06-27T19:37:57.154Z,3.40
2018-06-27T19:40:24.283Z,3.40
2018-06-27T19:42:51.285Z,3.20
2018-06-27T19:45:18.421Z,3.20
2018-06-27T19:47:45.439Z,3.80
2018-06-27T19:50:12.434Z,2.93
2018-06-27T19:52:39.425Z,3.20
2018-06-27T19:55:06.638Z,3.30
2018-06-27T19:57:33.639Z,4.77
2018-06-27T20:00:00.778Z,6.30
2018-06-27T20:02:27.813Z,3.43
2018-06-27T20:04:54.846Z,3.33
2018-06-27T20:07:22.129Z,3.63
2018-06-27T20:09:49.034Z,3.10
2018-06-27T20:12:16.046Z,3.00
2018-06-27T20:14:43.157Z,3.10
2018-06-27T20:17:10.177Z,3.20
2018-06-27T20:19:37.195Z,3.50
2018-06-27T20:22:04.244Z,3.13
2018-06-27T20:24:31.222Z,3.50
2018-06-27T20:26:58.225Z,3.00
2018-06-27T20:29:25.253Z,3.40
2018-06-27T20:31:52.255Z,3.57
2018-06-27T20:34:19.298Z,2.80
2018-06-27T20:36:46.310Z,3.20
2018-06-27T20:39:13.333Z,3.53
2018-06-27T20:41:40.709Z,3.30
2018-06-27T20:44:08.168Z,3.33
2018-06-27T20:46:35.342Z,4.30
2018-06-27T20:49:02.359Z,3.53
2018-06-27T20:51:29.470Z,4.10
2018-06-27T20:53:56.517Z,3.70
2018-06-27T20:56:24.330Z,3.50
2018-06-27T20:58:51.341Z,2.97
2018-06-27T21:01:18.377Z,3.20
2018-06-27T21:03:45.373Z,3.90
2018-06-27T21:06:12.414Z,3.53
2018-06-27T21:08:39.440Z,6.13
2018-06-27T21:11:06.494Z,3.03
2018-06-27T21:13:33.503Z,3.70
2018-06-27T21:16:00.542Z,3.70
2018-06-27T21:18:27.560Z,3.70
2018-06-27T21:20:54.594Z,3.20
2018-06-27T21:23:21.624Z,3.73
2018-06-27T21:25:48.646Z,3.57
2018-06-27T21:28:15.667Z,3.60
2018-06-27T21:30:42.734Z,3.90
2018-06-27T21:33:09.819Z,3.70
2018-06-27T21:35:36.838Z,4.00
2018-06-27T21:38:03.945Z,3.47
2018-06-27T21:40:30.957Z,3.80
2018-06-27T21:42:57.974Z,3.77
2018-06-27T21:45:25.053Z,3.93
2018-06-27T21:47:52.054Z,3.60
2018-06-27T21:50:19.062Z,3.40
2018-06-27T21:52:46.115Z,4.07
2018-06-27T21:55:13.130Z,3.60
2018-06-27T21:57:40.162Z,3.80
2018-06-27T22:00:08.221Z,3.70
2018-06-27T22:02:35.255Z,4.10
2018-06-27T22:05:02.555Z,3.87
2018-06-27T22:07:29.587Z,3.67
2018-06-27T22:09:56.613Z,4.00
2018-06-27T22:12:23.634Z,4.00
2018-06-27T22:14:50.649Z,3.57
2018-06-27T22:17:17.684Z,8.73
2018-06-27T22:19:44.693Z,4.10
2018-06-27T22:22:11.726Z,3.73
2018-06-27T22:24:38.739Z,3.67
2018-06-27T22:27:08.755Z,3.80
2018-06-27T22:29:35.775Z,3.70
2018-06-27T22:32:02.806Z,3.70
2018-06-27T22:34:29.859Z,3.80
2018-06-27T22:37:00.265Z,3.43
2018-06-27T22:39:29.026Z,4.13
2018-06-27T22:41:56.202Z,4.30
2018-06-27T22:44:23.142Z,3.43
2018-06-27T22:46:50.285Z,4.07
2018-06-27T22:49:17.318Z,4.10
2018-06-27T22:51:44.482Z,4.50
2018-06-27T22:54:11.528Z,4.60
2018-06-27T22:56:38.639Z,5.70
2018-06-27T22:59:05.802Z,4.87
2018-06-27T23:01:32.778Z,4.20
2018-06-27T23:03:59.866Z,3.60
2018-06-27T23:06:27.342Z,3.93
2018-06-27T23:08:54.392Z,4.00
2018-06-27T23:11:21.566Z,4.13
2018-06-27T23:13:48.620Z,4.77
2018-06-27T23:16:16.526Z,3.70
2018-06-27T23:18:43.553Z,4.20
2018-06-27T23:21:10.577Z,4.00
2018-06-27T23:23:37.602Z,4.23
2018-06-27T23:26:04.705Z,4.37
2018-06-27T23:28:31.715Z,4.53
2018-06-27T23:30:58.765Z,4.30
2018-06-27T23:33:25.807Z,4.50
2018-06-27T23:35:52.838Z,4.53
2018-06-27T23:38:19.858Z,4.77
2018-06-27T23:40:46.892Z,3.90
2018-06-27T23:43:13.897Z,4.33
2018-06-27T23:45:40.917Z,6.50
2018-06-27T23:48:07.951Z,4.70
2018-06-27T23:50:34.960Z,6.70
2018-06-27T23:53:01.985Z,4.27
2018-06-27T23:55:29.040Z,4.17
2018-06-27T23:57:56.049Z,4.10
